sensor_id;sensor_type;location;lat;lon;timestamp;pressure;altitude;pressure_sealevel;temperature;humidity
69737;BME280;64476;55.004;73.342;2023-04-08T00:02:13;101936.94;;;-8.23;33.94
69737;BME280;64476;55.004;73.342;2023-04-08T00:05:15;101995.44;;;-7.88;34.38
69737;BME280;64476;55.004;73.342;2023-04-08T00:08:18;101949.66;;;-8.12;34.13
69737;BME280;64476;55.004;73.342;2023-04-08T00:11:19;102000.53;;;-7.84;34.09
69737;BME280;64476;55.004;73.342;2023-04-08T00:14:31;101992.06;;;-7.91;34.31
69737;BME280;64476;55.004;73.342;2023-04-08T00:17:33;101985.28;;;-7.97;34.30
69737;BME280;64476;55.004;73.342;2023-04-08T00:20:41;101951.34;;;-8.14;34.29
69737;BME280;64476;55.004;73.342;2023-04-08T00:23:43;101949.63;;;-8.17;34.36
69737;BME280;64476;55.004;73.342;2023-04-08T00:26:44;101973.38;;;-8.02;33.92
69737;BME280;64476;55.004;73.342;2023-04-08T00:29:46;101996.34;;;-8.02;34.64
69737;BME280;64476;55.004;73.342;2023-04-08T00:32:48;101937.00;;;-8.38;34.59
69737;BME280;64476;55.004;73.342;2023-04-08T00:35:49;101916.66;;;-8.52;34.65
69737;BME280;64476;55.004;73.342;2023-04-08T00:38:51;101976.84;;;-8.14;34.07
69737;BME280;64476;55.004;73.342;2023-04-08T00:41:53;101999.75;;;-8.00;34.44
69737;BME280;64476;55.004;73.342;2023-04-08T00:45:05;101982.72;;;-7.98;34.46
69737;BME280;64476;55.004;73.342;2023-04-08T00:48:07;101984.41;;;-7.94;34.35
69737;BME280;64476;55.004;73.342;2023-04-08T00:51:13;101881.78;;;-8.48;34.76
69737;BME280;64476;55.004;73.342;2023-04-08T00:54:16;101971.66;;;-7.90;34.58
69737;BME280;64476;55.004;73.342;2023-04-08T00:57:28;101983.47;;;-7.79;34.53
69737;BME280;64476;55.004;73.342;2023-04-08T01:00:30;101930.09;;;-8.15;34.56
69737;BME280;64476;55.004;73.342;2023-04-08T01:10:27;101983.50;;;-7.78;34.66
69737;BME280;64476;55.004;73.342;2023-04-08T01:13:33;101965.66;;;-7.85;34.75
69737;BME280;64476;55.004;73.342;2023-04-08T01:16:39;101941.91;;;-7.97;34.80
69737;BME280;64476;55.004;73.342;2023-04-08T01:19:53;101920.69;;;-8.06;34.21
69737;BME280;64476;55.004;73.342;2023-04-08T01:26:04;101984.25;;;-7.60;34.04
69737;BME280;64476;55.004;73.342;2023-04-08T01:29:09;101898.66;;;-8.18;33.80
69737;BME280;64476;55.004;73.342;2023-04-08T01:32:15;101990.19;;;-7.58;33.96
69737;BME280;64476;55.004;73.342;2023-04-08T01:35:17;101984.25;;;-7.63;34.22
69737;BME280;64476;55.004;73.342;2023-04-08T01:38:19;102000.34;;;-7.54;33.97
69737;BME280;64476;55.004;73.342;2023-04-08T01:41:23;101996.13;;;-7.53;34.24
69737;BME280;64476;55.004;73.342;2023-04-08T01:44:26;101919.78;;;-7.98;33.62
69737;BME280;64476;55.004;73.342;2023-04-08T01:47:28;101946.06;;;-7.80;33.82
69737;BME280;64476;55.004;73.342;2023-04-08T01:50:36;101985.91;;;-7.53;34.18
69737;BME280;64476;55.004;73.342;2023-04-08T01:53:38;101979.91;;;-7.51;34.21
69737;BME280;64476;55.004;73.342;2023-04-08T01:56:41;102010.47;;;-7.35;34.58
69737;BME280;64476;55.004;73.342;2023-04-08T01:59:44;102005.34;;;-7.34;34.87
69737;BME280;64476;55.004;73.342;2023-04-08T02:02:59;101974.84;;;-7.55;34.63
69737;BME280;64476;55.004;73.342;2023-04-08T02:06:10;101937.59;;;-7.82;34.81
69737;BME280;64476;55.004;73.342;2023-04-08T02:09:17;101997.81;;;-7.49;34.29
69737;BME280;64476;55.004;73.342;2023-04-08T02:12:19;102009.66;;;-7.41;34.61
69737;BME280;64476;55.004;73.342;2023-04-08T02:15:21;101980.03;;;-7.68;35.29
69737;BME280;64476;55.004;73.342;2023-04-08T02:21:34;101936.69;;;-7.80;34.50
69737;BME280;64476;55.004;73.342;2023-04-08T02:24:39;102006.16;;;-7.26;34.78
69737;BME280;64476;55.004;73.342;2023-04-08T02:27:43;101962.81;;;-7.38;34.84
69737;BME280;64476;55.004;73.342;2023-04-08T02:30:47;102008.66;;;-7.21;35.02
69737;BME280;64476;55.004;73.342;2023-04-08T02:33:50;101953.66;;;-7.67;35.41
69737;BME280;64476;55.004;73.342;2023-04-08T02:36:53;101954.47;;;-7.65;35.59
69737;BME280;64476;55.004;73.342;2023-04-08T02:39:55;102018.06;;;-7.25;35.40
69737;BME280;64476;55.004;73.342;2023-04-08T02:42:57;101978.09;;;-7.32;35.40
69737;BME280;64476;55.004;73.342;2023-04-08T02:46:03;102005.22;;;-7.14;35.30
69737;BME280;64476;55.004;73.342;2023-04-08T02:49:10;102016.19;;;-6.98;35.15
69737;BME280;64476;55.004;73.342;2023-04-08T02:52:16;102002.56;;;-7.00;34.60
69737;BME280;64476;55.004;73.342;2023-04-08T02:55:23;102011.03;;;-6.94;34.24
69737;BME280;64476;55.004;73.342;2023-04-08T02:58:24;101933.88;;;-7.38;34.01
69737;BME280;64476;55.004;73.342;2023-04-08T03:01:26;102003.28;;;-6.87;33.97
69737;BME280;64476;55.004;73.342;2023-04-08T03:04:30;102008.28;;;-6.72;33.70
69737;BME280;64476;55.004;73.342;2023-04-08T03:07:32;101940.34;;;-6.98;33.85
69737;BME280;64476;55.004;73.342;2023-04-08T03:10:34;101991.97;;;-6.60;33.30
69737;BME280;64476;55.004;73.342;2023-04-08T03:13:36;102000.34;;;-6.46;33.25
69737;BME280;64476;55.004;73.342;2023-04-08T03:16:37;101971.41;;;-6.51;33.32
69737;BME280;64476;55.004;73.342;2023-04-08T03:19:39;101966.16;;;-6.37;33.30
69737;BME280;64476;55.004;73.342;2023-04-08T03:22:41;101998.25;;;-6.10;32.82
69737;BME280;64476;55.004;73.342;2023-04-08T03:25:43;101971.75;;;-6.06;32.77
69737;BME280;64476;55.004;73.342;2023-04-08T03:28:45;101987.63;;;-5.80;32.70
69737;BME280;64476;55.004;73.342;2023-04-08T03:34:51;101895.88;;;-6.10;32.11
69737;BME280;64476;55.004;73.342;2023-04-08T03:38:03;101945.03;;;-5.85;31.45
69737;BME280;64476;55.004;73.342;2023-04-08T03:41:05;101954.34;;;-5.80;31.30
69737;BME280;64476;55.004;73.342;2023-04-08T03:44:11;101982.31;;;-5.64;31.48
69737;BME280;64476;55.004;73.342;2023-04-08T03:47:15;101989.16;;;-5.65;31.63
69737;BME280;64476;55.004;73.342;2023-04-08T03:50:17;101930.50;;;-5.85;31.60
69737;BME280;64476;55.004;73.342;2023-04-08T03:53:18;101944.69;;;-5.62;31.66
69737;BME280;64476;55.004;73.342;2023-04-08T03:56:23;101920.13;;;-5.74;31.72
69737;BME280;64476;55.004;73.342;2023-04-08T03:59:57;101961.63;;;-5.52;31.48
69737;BME280;64476;55.004;73.342;2023-04-08T04:03:04;101975.75;;;-5.25;31.69
69737;BME280;64476;55.004;73.342;2023-04-08T04:06:06;101917.13;;;-5.45;31.71
69737;BME280;64476;55.004;73.342;2023-04-08T04:09:08;101908.50;;;-5.39;31.31
69737;BME280;64476;55.004;73.342;2023-04-08T04:12:10;101942.19;;;-5.10;31.07
69737;BME280;64476;55.004;73.342;2023-04-08T04:15:12;101915.94;;;-5.26;30.72
69737;BME280;64476;55.004;73.342;2023-04-08T04:18:13;101953.16;;;-5.03;30.48
69737;BME280;64476;55.004;73.342;2023-04-08T04:21:15;101915.75;;;-5.13;30.88
69737;BME280;64476;55.004;73.342;2023-04-08T04:24:16;101962.13;;;-4.78;30.10
69737;BME280;64476;55.004;73.342;2023-04-08T04:27:18;101890.84;;;-5.05;29.84
69737;BME280;64476;55.004;73.342;2023-04-08T04:30:23;101948.22;;;-4.64;30.16
69737;BME280;64476;55.004;73.342;2023-04-08T04:33:36;101953.94;;;-4.52;30.17
69737;BME280;64476;55.004;73.342;2023-04-08T04:40:26;101902.13;;;-4.69;30.06
69737;BME280;64476;55.004;73.342;2023-04-08T04:44:00;101941.47;;;-4.27;29.15
69737;BME280;64476;55.004;73.342;2023-04-08T04:47:01;101919.94;;;-4.19;29.91
69737;BME280;64476;55.004;73.342;2023-04-08T04:50:04;101945.06;;;-3.92;30.07
69737;BME280;64476;55.004;73.342;2023-04-08T04:53:09;101897.34;;;-4.02;29.47
69737;BME280;64476;55.004;73.342;2023-04-08T04:56:43;101925.34;;;-3.54;29.34
69737;BME280;64476;55.004;73.342;2023-04-08T05:03:18;101884.38;;;-3.60;29.33
69737;BME280;64476;55.004;73.342;2023-04-08T05:06:23;101897.72;;;-3.44;29.10
69737;BME280;64476;55.004;73.342;2023-04-08T05:09:27;101921.75;;;-3.11;29.01
69737;BME280;64476;55.004;73.342;2023-04-08T05:12:29;101880.81;;;-3.20;28.42
69737;BME280;64476;55.004;73.342;2023-04-08T05:15:31;101898.75;;;-3.17;28.77
69737;BME280;64476;55.004;73.342;2023-04-08T05:18:42;101907.56;;;-2.93;28.54
69737;BME280;64476;55.004;73.342;2023-04-08T05:21:44;101854.00;;;-3.10;28.47
69737;BME280;64476;55.004;73.342;2023-04-08T05:24:45;101845.09;;;-2.97;28.15
69737;BME280;64476;55.004;73.342;2023-04-08T05:27:47;101880.06;;;-2.60;28.39
69737;BME280;64476;55.004;73.342;2023-04-08T05:34:22;101884.13;;;-2.22;27.71
69737;BME280;64476;55.004;73.342;2023-04-08T05:37:27;101873.31;;;-2.05;27.80
69737;BME280;64476;55.004;73.342;2023-04-08T05:40:39;101858.41;;;-1.95;27.33
69737;BME280;64476;55.004;73.342;2023-04-08T05:43:41;101826.06;;;-2.04;27.29
69737;BME280;64476;55.004;73.342;2023-04-08T05:46:42;101792.03;;;-2.14;27.32
69737;BME280;64476;55.004;73.342;2023-04-08T05:49:44;101846.28;;;-1.65;27.18
69737;BME280;64476;55.004;73.342;2023-04-08T05:52:46;101821.56;;;-1.71;27.08
69737;BME280;64476;55.004;73.342;2023-04-08T05:55:48;101718.22;;;-2.15;26.98
69737;BME280;64476;55.004;73.342;2023-04-08T05:58:49;101803.19;;;-1.60;26.86
69737;BME280;64476;55.004;73.342;2023-04-08T06:01:51;101815.50;;;-1.18;26.68
69737;BME280;64476;55.004;73.342;2023-04-08T06:05:05;101802.50;;;-1.15;26.23
69737;BME280;64476;55.004;73.342;2023-04-08T06:08:07;101838.13;;;-1.01;26.53
69737;BME280;64476;55.004;73.342;2023-04-08T06:11:41;101849.94;;;-1.19;26.05
69737;BME280;64476;55.004;73.342;2023-04-08T06:14:42;101833.53;;;-1.18;26.40
69737;BME280;64476;55.004;73.342;2023-04-08T06:17:54;101700.34;;;-1.93;26.46
69737;BME280;64476;55.004;73.342;2023-04-08T06:21:03;101741.88;;;-1.52;26.44
69737;BME280;64476;55.004;73.342;2023-04-08T06:24:05;101822.38;;;-0.94;26.47
69737;BME280;64476;55.004;73.342;2023-04-08T06:27:11;101825.41;;;-0.82;26.17
69737;BME280;64476;55.004;73.342;2023-04-08T06:30:13;101799.25;;;-0.97;26.50
69737;BME280;64476;55.004;73.342;2023-04-08T06:33:19;101756.59;;;-1.05;27.11
69737;BME280;64476;55.004;73.342;2023-04-08T06:36:20;101765.81;;;-0.76;27.02
69737;BME280;64476;55.004;73.342;2023-04-08T06:39:22;101814.38;;;-0.41;26.86
69737;BME280;64476;55.004;73.342;2023-04-08T06:42:29;101780.66;;;-0.59;26.56
69737;BME280;64476;55.004;73.342;2023-04-08T06:46:19;101746.06;;;-0.77;27.20
69737;BME280;64476;55.004;73.342;2023-04-08T06:49:24;101744.22;;;-0.74;27.13
69737;BME280;64476;55.004;73.342;2023-04-08T06:53:00;101797.44;;;-0.26;26.66
69737;BME280;64476;55.004;73.342;2023-04-08T06:56:17;101763.97;;;-0.29;26.83
69737;BME280;64476;55.004;73.342;2023-04-08T06:59:18;101774.59;;;-0.15;26.69
69737;BME280;64476;55.004;73.342;2023-04-08T07:02:20;101754.97;;;-0.63;26.80
69737;BME280;64476;55.004;73.342;2023-04-08T07:05:25;101771.41;;;-0.65;26.85
69737;BME280;64476;55.004;73.342;2023-04-08T07:08:28;101693.13;;;-1.11;27.03
69737;BME280;64476;55.004;73.342;2023-04-08T07:15:03;101682.56;;;-0.59;27.24
69737;BME280;64476;55.004;73.342;2023-04-08T07:18:05;101730.50;;;-0.10;26.81
69737;BME280;64476;55.004;73.342;2023-04-08T07:21:07;101745.91;;;0.14;26.79
69737;BME280;64476;55.004;73.342;2023-04-08T07:24:09;101750.28;;;0.11;27.37
69737;BME280;64476;55.004;73.342;2023-04-08T07:27:10;101723.72;;;0.08;27.20
69737;BME280;64476;55.004;73.342;2023-04-08T07:30:12;101715.38;;;0.01;27.43
69737;BME280;64476;55.004;73.342;2023-04-08T07:33:14;101722.81;;;-0.12;27.40
69737;BME280;64476;55.004;73.342;2023-04-08T07:36:16;101715.97;;;-0.13;27.42
69737;BME280;64476;55.004;73.342;2023-04-08T07:39:18;101724.72;;;0.05;27.07
69737;BME280;64476;55.004;73.342;2023-04-08T07:42:51;101718.19;;;0.17;27.59
69737;BME280;64476;55.004;73.342;2023-04-08T07:45:55;101717.88;;;0.25;27.66
69737;BME280;64476;55.004;73.342;2023-04-08T07:49:04;101686.66;;;0.09;27.60
69737;BME280;64476;55.004;73.342;2023-04-08T07:52:06;101709.28;;;0.24;26.90
69737;BME280;64476;55.004;73.342;2023-04-08T07:55:08;101712.63;;;0.26;27.13
69737;BME280;64476;55.004;73.342;2023-04-08T07:58:09;101709.66;;;0.35;27.19
69737;BME280;64476;55.004;73.342;2023-04-08T08:01:16;101712.88;;;0.41;27.22
69737;BME280;64476;55.004;73.342;2023-04-08T08:04:21;101702.19;;;0.48;27.80
69737;BME280;64476;55.004;73.342;2023-04-08T08:07:56;101700.44;;;0.49;26.92
69737;BME280;64476;55.004;73.342;2023-04-08T08:11:03;101581.88;;;-0.19;27.07
69737;BME280;64476;55.004;73.342;2023-04-08T08:14:05;101630.22;;;0.39;27.56
69737;BME280;64476;55.004;73.342;2023-04-08T08:17:08;101661.41;;;0.74;26.97
69737;BME280;64476;55.004;73.342;2023-04-08T08:20:10;101627.50;;;0.61;27.27
69737;BME280;64476;55.004;73.342;2023-04-08T08:23:11;101663.59;;;0.83;27.55
69737;BME280;64476;55.004;73.342;2023-04-08T08:26:13;101627.53;;;0.41;27.67
69737;BME280;64476;55.004;73.342;2023-04-08T08:29:19;101632.22;;;0.51;27.69
69737;BME280;64476;55.004;73.342;2023-04-08T08:32:27;101645.38;;;0.66;27.40
69737;BME280;64476;55.004;73.342;2023-04-08T08:35:29;101675.66;;;0.64;27.31
69737;BME280;64476;55.004;73.342;2023-04-08T08:38:35;101648.19;;;0.61;27.12
69737;BME280;64476;55.004;73.342;2023-04-08T08:41:37;101635.88;;;0.66;27.13
69737;BME280;64476;55.004;73.342;2023-04-08T08:45:11;101656.00;;;0.59;28.02
69737;BME280;64476;55.004;73.342;2023-04-08T08:48:12;101598.53;;;0.34;27.50
69737;BME280;64476;55.004;73.342;2023-04-08T08:51:20;101629.16;;;0.62;27.48
69737;BME280;64476;55.004;73.342;2023-04-08T08:54:31;101519.69;;;0.05;28.14
69737;BME280;64476;55.004;73.342;2023-04-08T08:57:39;101646.72;;;0.74;27.82
69737;BME280;64476;55.004;73.342;2023-04-08T09:00:41;101651.53;;;0.82;27.85
69737;BME280;64476;55.004;73.342;2023-04-08T09:03:44;101651.63;;;0.22;28.39
69737;BME280;64476;55.004;73.342;2023-04-08T09:06:47;101631.22;;;-0.04;28.87
69737;BME280;64476;55.004;73.342;2023-04-08T09:09:58;101593.38;;;-0.46;29.18
69737;BME280;64476;55.004;73.342;2023-04-08T09:12:59;101631.09;;;-0.01;28.92
69737;BME280;64476;55.004;73.342;2023-04-08T09:16:08;101637.16;;;0.18;29.22
69737;BME280;64476;55.004;73.342;2023-04-08T09:19:19;101606.91;;;0.20;29.76
69737;BME280;64476;55.004;73.342;2023-04-08T09:22:29;101530.81;;;-0.32;29.36
69737;BME280;64476;55.004;73.342;2023-04-08T09:25:41;101584.13;;;0.09;29.38
69737;BME280;64476;55.004;73.342;2023-04-08T09:28:56;101574.50;;;0.13;29.35
69737;BME280;64476;55.004;73.342;2023-04-08T09:32:00;101560.19;;;0.04;29.49
69737;BME280;64476;55.004;73.342;2023-04-08T09:35:03;101602.16;;;0.49;29.30
69737;BME280;64476;55.004;73.342;2023-04-08T09:38:11;101563.38;;;0.49;29.12
69737;BME280;64476;55.004;73.342;2023-04-08T09:44:50;101528.16;;;0.46;29.54
69737;BME280;64476;55.004;73.342;2023-04-08T09:47:55;101587.34;;;0.90;29.68
69737;BME280;64476;55.004;73.342;2023-04-08T09:51:39;101527.00;;;0.71;30.00
69737;BME280;64476;55.004;73.342;2023-04-08T09:55:01;101525.06;;;0.76;29.77
69737;BME280;64476;55.004;73.342;2023-04-08T09:58:14;101548.81;;;0.84;29.56
69737;BME280;64476;55.004;73.342;2023-04-08T10:01:25;101560.97;;;0.82;29.25
69737;BME280;64476;55.004;73.342;2023-04-08T10:04:29;101532.81;;;0.76;29.72
69737;BME280;64476;55.004;73.342;2023-04-08T10:07:43;101500.22;;;0.35;29.71
69737;BME280;64476;55.004;73.342;2023-04-08T10:10:49;101496.16;;;0.30;29.39
69737;BME280;64476;55.004;73.342;2023-04-08T10:14:01;101527.88;;;0.52;30.21
69737;BME280;64476;55.004;73.342;2023-04-08T10:23:55;101429.81;;;0.11;30.16
69737;BME280;64476;55.004;73.342;2023-04-08T10:27:02;101317.38;;;-0.52;30.15
69737;BME280;64476;55.004;73.342;2023-04-08T10:33:33;101452.28;;;0.28;29.57
69737;BME280;64476;55.004;73.342;2023-04-08T10:36:37;101504.19;;;0.43;30.62
69737;BME280;64476;55.004;73.342;2023-04-08T10:39:47;101469.88;;;0.01;30.98
69737;BME280;64476;55.004;73.342;2023-04-08T10:42:57;101470.66;;;0.03;30.79
69737;BME280;64476;55.004;73.342;2023-04-08T10:46:03;101515.94;;;0.50;30.91
69737;BME280;64476;55.004;73.342;2023-04-08T10:49:05;101501.88;;;0.55;31.39
69737;BME280;64476;55.004;73.342;2023-04-08T10:52:08;101519.78;;;0.41;32.07
69737;BME280;64476;55.004;73.342;2023-04-08T10:55:10;101478.16;;;0.09;31.70
69737;BME280;64476;55.004;73.342;2023-04-08T10:58:20;101522.78;;;0.32;31.61
69737;BME280;64476;55.004;73.342;2023-04-08T11:01:22;101527.75;;;0.36;32.10
69737;BME280;64476;55.004;73.342;2023-04-08T11:08:36;101453.00;;;0.13;32.03
69737;BME280;64476;55.004;73.342;2023-04-08T11:11:38;101516.81;;;0.49;32.13
69737;BME280;64476;55.004;73.342;2023-04-08T11:14:41;101510.13;;;0.26;32.37
69737;BME280;64476;55.004;73.342;2023-04-08T11:17:43;101486.03;;;0.06;32.70
69737;BME280;64476;55.004;73.342;2023-04-08T11:25:11;101504.06;;;0.27;32.45
69737;BME280;64476;55.004;73.342;2023-04-08T11:28:39;101485.47;;;0.38;31.96
69737;BME280;64476;55.004;73.342;2023-04-08T11:31:43;101489.38;;;0.46;31.82
69737;BME280;64476;55.004;73.342;2023-04-08T11:36:05;101494.41;;;0.49;31.50
69737;BME280;64476;55.004;73.342;2023-04-08T11:42:30;101430.50;;;0.15;31.67
69737;BME280;64476;55.004;73.342;2023-04-08T11:45:41;101465.09;;;0.13;31.50
69737;BME280;64476;55.004;73.342;2023-04-08T11:48:58;101471.03;;;-0.04;31.53
69737;BME280;64476;55.004;73.342;2023-04-08T11:52:00;101468.44;;;-0.23;31.89
69737;BME280;64476;55.004;73.342;2023-04-08T11:55:03;101435.31;;;-0.53;32.54
69737;BME280;64476;55.004;73.342;2023-04-08T11:58:05;101452.38;;;-0.50;32.99
69737;BME280;64476;55.004;73.342;2023-04-08T12:05:20;101349.91;;;-1.27;32.45
69737;BME280;64476;55.004;73.342;2023-04-08T12:08:21;101215.69;;;-2.26;32.54
69737;BME280;64476;55.004;73.342;2023-04-08T12:11:23;101430.66;;;-1.06;32.99
69737;BME280;64476;55.004;73.342;2023-04-08T12:14:25;101423.44;;;-1.18;33.08
69737;BME280;64476;55.004;73.342;2023-04-08T12:17:58;101362.16;;;-1.74;33.60
69737;BME280;64476;55.004;73.342;2023-04-08T12:21:00;101405.03;;;-1.51;33.86
69737;BME280;64476;55.004;73.342;2023-04-08T12:24:03;101330.22;;;-1.92;34.05
69737;BME280;64476;55.004;73.342;2023-04-08T12:27:12;101368.81;;;-1.48;34.07
69737;BME280;64476;55.004;73.342;2023-04-08T12:30:13;101395.19;;;-1.21;34.15
69737;BME280;64476;55.004;73.342;2023-04-08T12:33:16;101403.56;;;-1.37;34.13
69737;BME280;64476;55.004;73.342;2023-04-08T12:36:18;101400.66;;;-1.49;34.88
69737;BME280;64476;55.004;73.342;2023-04-08T12:39:20;101378.22;;;-1.68;34.54
69737;BME280;64476;55.004;73.342;2023-04-08T12:42:27;101367.03;;;-1.68;34.60
69737;BME280;64476;55.004;73.342;2023-04-08T12:45:38;101382.63;;;-1.49;34.34
69737;BME280;64476;55.004;73.342;2023-04-08T12:48:40;101391.28;;;-1.30;34.41
69737;BME280;64476;55.004;73.342;2023-04-08T12:51:42;101329.19;;;-1.46;34.80
69737;BME280;64476;55.004;73.342;2023-04-08T12:54:43;101296.75;;;-1.51;34.63
69737;BME280;64476;55.004;73.342;2023-04-08T13:01:58;101363.50;;;-0.84;34.98
69737;BME280;64476;55.004;73.342;2023-04-08T13:05:01;101289.66;;;-1.26;34.80
69737;BME280;64476;55.004;73.342;2023-04-08T13:12:16;101348.66;;;-0.98;35.63
69737;BME280;64476;55.004;73.342;2023-04-08T13:15:17;101320.50;;;-1.23;35.64
69737;BME280;64476;55.004;73.342;2023-04-08T13:18:19;101292.94;;;-1.43;35.88
69737;BME280;64476;55.004;73.342;2023-04-08T13:21:31;101307.25;;;-1.36;36.00
69737;BME280;64476;55.004;73.342;2023-04-08T13:24:42;101356.66;;;-1.04;36.41
69737;BME280;64476;55.004;73.342;2023-04-08T13:31:35;101279.13;;;-1.61;36.86
69737;BME280;64476;55.004;73.342;2023-04-08T13:34:42;101330.28;;;-1.31;36.88
69737;BME280;64476;55.004;73.342;2023-04-08T13:37:43;101340.41;;;-1.26;37.27
69737;BME280;64476;55.004;73.342;2023-04-08T13:40:45;101316.09;;;-1.41;37.23
69737;BME280;64476;55.004;73.342;2023-04-08T13:43:47;101299.97;;;-1.46;37.37
69737;BME280;64476;55.004;73.342;2023-04-08T13:46:50;101327.44;;;-1.25;37.45
69737;BME280;64476;55.004;73.342;2023-04-08T13:49:59;101260.41;;;-1.66;37.47
69737;BME280;64476;55.004;73.342;2023-04-08T13:53:06;101332.25;;;-1.17;37.63
69737;BME280;64476;55.004;73.342;2023-04-08T13:56:13;101301.47;;;-1.41;37.82
69737;BME280;64476;55.004;73.342;2023-04-08T13:59:24;101285.88;;;-1.58;38.10
69737;BME280;64476;55.004;73.342;2023-04-08T14:02:26;101272.28;;;-1.62;38.28
69737;BME280;64476;55.004;73.342;2023-04-08T14:06:05;101338.03;;;-1.31;38.80
69737;BME280;64476;55.004;73.342;2023-04-08T14:09:08;101322.88;;;-1.39;38.09
69737;BME280;64476;55.004;73.342;2023-04-08T14:12:11;101103.81;;;-2.82;38.54
69737;BME280;64476;55.004;73.342;2023-04-08T14:15:13;101290.63;;;-1.69;38.52
69737;BME280;64476;55.004;73.342;2023-04-08T14:18:24;101345.53;;;-1.47;38.50
69737;BME280;64476;55.004;73.342;2023-04-08T14:21:26;101330.34;;;-1.53;38.77
69737;BME280;64476;55.004;73.342;2023-04-08T14:24:28;101306.94;;;-1.69;38.68
69737;BME280;64476;55.004;73.342;2023-04-08T14:27:29;101331.91;;;-1.49;38.40
69737;BME280;64476;55.004;73.342;2023-04-08T14:30:34;101314.34;;;-1.61;38.94
69737;BME280;64476;55.004;73.342;2023-04-08T14:33:36;101317.84;;;-1.62;38.58
69737;BME280;64476;55.004;73.342;2023-04-08T14:36:39;101339.78;;;-1.53;38.99
69737;BME280;64476;55.004;73.342;2023-04-08T14:39:40;101328.34;;;-1.67;38.80
69737;BME280;64476;55.004;73.342;2023-04-08T14:42:48;101336.47;;;-1.55;39.37
69737;BME280;64476;55.004;73.342;2023-04-08T14:45:53;101344.91;;;-1.52;38.82
69737;BME280;64476;55.004;73.342;2023-04-08T14:48:55;101340.66;;;-1.53;38.94
69737;BME280;64476;55.004;73.342;2023-04-08T14:52:07;101279.66;;;-1.95;38.76
69737;BME280;64476;55.004;73.342;2023-04-08T14:55:08;101249.91;;;-2.24;39.15
69737;BME280;64476;55.004;73.342;2023-04-08T14:58:41;101339.59;;;-1.69;39.21
69737;BME280;64476;55.004;73.342;2023-04-08T15:01:48;101260.22;;;-2.24;39.29
69737;BME280;64476;55.004;73.342;2023-04-08T15:05:01;101354.81;;;-1.63;39.32
69737;BME280;64476;55.004;73.342;2023-04-08T15:08:04;101352.13;;;-1.60;39.61
69737;BME280;64476;55.004;73.342;2023-04-08T15:11:05;101347.84;;;-1.61;39.29
69737;BME280;64476;55.004;73.342;2023-04-08T15:14:07;101365.41;;;-1.49;39.44
69737;BME280;64476;55.004;73.342;2023-04-08T15:17:40;101375.59;;;-1.46;39.76
69737;BME280;64476;55.004;73.342;2023-04-08T15:20:42;101365.00;;;-1.60;39.69
69737;BME280;64476;55.004;73.342;2023-04-08T15:24:15;101280.78;;;-2.02;39.50
69737;BME280;64476;55.004;73.342;2023-04-08T15:27:49;101383.06;;;-1.40;40.55
69737;BME280;64476;55.004;73.342;2023-04-08T15:30:50;101388.03;;;-1.35;39.42
69737;BME280;64476;55.004;73.342;2023-04-08T15:34:35;101273.84;;;-2.00;39.49
69737;BME280;64476;55.004;73.342;2023-04-08T15:37:37;101368.50;;;-1.41;39.68
69737;BME280;64476;55.004;73.342;2023-04-08T15:40:38;101270.38;;;-1.99;39.75
69737;BME280;64476;55.004;73.342;2023-04-08T15:43:40;101387.75;;;-1.27;40.00
69737;BME280;64476;55.004;73.342;2023-04-08T15:46:42;101394.94;;;-1.15;39.95
69737;BME280;64476;55.004;73.342;2023-04-08T15:49:51;101368.19;;;-1.33;40.43
69737;BME280;64476;55.004;73.342;2023-04-08T15:53:29;101372.00;;;-1.21;40.11
69737;BME280;64476;55.004;73.342;2023-04-08T15:56:31;101393.72;;;-1.06;40.05
69737;BME280;64476;55.004;73.342;2023-04-08T16:03:13;101366.06;;;-1.03;39.74
69737;BME280;64476;55.004;73.342;2023-04-08T16:06:15;101388.59;;;-0.88;39.72
69737;BME280;64476;55.004;73.342;2023-04-08T16:09:17;101388.47;;;-0.85;39.78
69737;BME280;64476;55.004;73.342;2023-04-08T16:12:22;101370.97;;;-0.97;39.76
69737;BME280;64476;55.004;73.342;2023-04-08T16:15:34;101378.44;;;-0.91;39.95
69737;BME280;64476;55.004;73.342;2023-04-08T16:18:40;101377.25;;;-0.83;39.91
69737;BME280;64476;55.004;73.342;2023-04-08T16:21:48;101367.34;;;-0.93;40.29
69737;BME280;64476;55.004;73.342;2023-04-08T16:24:50;101357.72;;;-0.89;40.39
69737;BME280;64476;55.004;73.342;2023-04-08T16:28:37;101302.34;;;-1.21;40.35
69737;BME280;64476;55.004;73.342;2023-04-08T16:31:40;101359.19;;;-0.83;39.96
69737;BME280;64476;55.004;73.342;2023-04-08T16:34:42;101368.06;;;-0.70;40.39
69737;BME280;64476;55.004;73.342;2023-04-08T16:37:44;101360.19;;;-0.67;40.08
69737;BME280;64476;55.004;73.342;2023-04-08T16:40:52;101348.84;;;-0.63;40.01
69737;BME280;64476;55.004;73.342;2023-04-08T16:44:30;101283.03;;;-0.92;40.15
69737;BME280;64476;55.004;73.342;2023-04-08T16:48:04;101348.44;;;-0.54;40.35
69737;BME280;64476;55.004;73.342;2023-04-08T16:51:37;101350.22;;;-0.56;40.32
69737;BME280;64476;55.004;73.342;2023-04-08T16:54:39;101335.78;;;-0.60;40.17
69737;BME280;64476;55.004;73.342;2023-04-08T16:57:41;101336.19;;;-0.69;39.87
69737;BME280;64476;55.004;73.342;2023-04-08T17:00:43;101342.00;;;-0.64;40.16
69737;BME280;64476;55.004;73.342;2023-04-08T17:03:45;101304.44;;;-0.90;40.09
69737;BME280;64476;55.004;73.342;2023-04-08T17:06:48;101293.91;;;-1.04;40.32
69737;BME280;64476;55.004;73.342;2023-04-08T17:09:55;101200.06;;;-1.60;40.34
69737;BME280;64476;55.004;73.342;2023-04-08T17:12:57;101297.94;;;-0.99;40.41
69737;BME280;64476;55.004;73.342;2023-04-08T17:15:58;101320.44;;;-0.82;40.35
69737;BME280;64476;55.004;73.342;2023-04-08T17:19:00;101284.50;;;-1.05;40.59
69737;BME280;64476;55.004;73.342;2023-04-08T17:22:01;101235.91;;;-1.35;40.47
69737;BME280;64476;55.004;73.342;2023-04-08T17:25:03;101304.50;;;-0.92;40.76